Time;durP1;ratioP1;P1;durP2;ratioP2;P2;SDS_P1;SDS_P2;PMS_P1;PMS_P2;Temp;Humidity;BMP_temperature;BMP_pressure;BME280_temperature;BME280_humidity;BME280_pressure;Samples;Min_cycle;Max_cycle;Signal;HPM_P1;HPM_P2
2021/11/30 00:01:14;;;;;;;5.38;3.10;;;4.60;1.00;;;;;;4986904;28;20182;-75
2021/11/30 00:03:50;;;;;;;11.48;2.67;;;4.60;1.00;;;;;;4997136;28;20248;-75
2021/11/30 00:06:49;;;;;;;10.27;3.20;;;4.60;1.00;;;;;;4997564;28;20185;-77
2021/11/30 00:12:31;;;;;;;6.38;3.28;;;4.60;1.00;;;;;;4997882;28;20436;-75
2021/11/30 00:15:25;;;;;;;8.97;3.63;;;4.60;1.00;;;;;;4991988;28;20272;-76
2021/11/30 00:17:51;;;;;;;2.55;2.45;;;4.60;1.00;;;;;;4986799;28;20490;-75
2021/11/30 00:20:20;;;;;;;8.90;3.10;;;4.60;1.00;;;;;;4997092;28;20255;-75
2021/11/30 00:22:46;;;;;;;3.67;2.88;;;;;;;;;;4997195;28;20177;-74
2021/11/30 00:25:13;;;;;;;4.07;2.87;;;4.60;1.00;;;;;;4997058;28;20572;-74
2021/11/30 00:27:43;;;;;;;2.55;2.28;;;4.60;1.00;;;;;;4997279;28;20424;-74
2021/11/30 00:30:09;;;;;;;4.85;3.00;;;4.60;1.00;;;;;;4991723;28;20174;-74
2021/11/30 00:32:50;;;;;;;4.18;2.42;;;4.60;1.00;;;;;;4996734;28;20652;-74
2021/11/30 00:35:22;;;;;;;2.80;2.60;;;4.60;1.00;;;;;;4995095;28;20181;-75
2021/11/30 00:37:48;;;;;;;2.20;1.98;;;;;;;;;;4997000;28;20534;-74
2021/11/30 00:40:20;;;;;;;2.50;2.30;;;4.50;1.00;;;;;;4996900;28;20629;-75
2021/11/30 00:43:32;;;;;;;2.13;1.90;;;4.50;1.00;;;;;;4996877;28;20403;-75
2021/11/30 00:46:01;;;;;;;6.50;2.63;;;4.50;1.00;;;;;;4981786;28;20204;-75
2021/11/30 00:48:30;;;;;;;3.30;2.00;;;4.40;1.00;;;;;;4996523;28;20393;-75
2021/11/30 00:51:00;;;;;;;2.17;1.65;;;4.50;1.00;;;;;;4982742;28;20422;-75
2021/11/30 00:53:39;;;;;;;4.57;2.03;;;4.50;1.00;;;;;;4996941;28;20185;-74
2021/11/30 00:56:06;;;;;;;1.65;1.55;;;4.50;1.00;;;;;;4994738;28;20425;-74
2021/11/30 00:58:33;;;;;;;2.80;1.87;;;4.50;1.00;;;;;;4986647;28;20238;-74
2021/11/30 01:00:59;;;;;;;3.60;2.43;;;4.60;1.00;;;;;;4996554;28;20419;-74
2021/11/30 01:03:25;;;;;;;3.00;1.97;;;4.60;1.00;;;;;;4996550;28;20397;-74
2021/11/30 01:05:51;;;;;;;3.13;2.60;;;4.60;1.00;;;;;;4987641;28;20438;-74
2021/11/30 01:08:26;;;;;;;2.20;1.83;;;4.60;1.00;;;;;;4979801;28;20406;-74
2021/11/30 01:10:52;;;;;;;2.47;2.33;;;4.50;1.00;;;;;;4996290;28;20436;-74
2021/11/30 01:13:20;;;;;;;2.70;2.00;;;4.50;1.00;;;;;;4983316;28;20209;-74
2021/11/30 01:15:49;;;;;;;5.72;1.60;;;4.50;1.00;;;;;;4996030;28;20498;-73
2021/11/30 01:18:15;;;;;;;1.77;1.67;;;4.40;1.00;;;;;;4996309;28;20205;-74
2021/11/30 01:21:13;;;;;;;5.13;1.90;;;4.40;1.00;;;;;;4995606;28;20208;-74
2021/11/30 01:27:25;;;;;;;4.05;1.63;;;4.40;1.00;;;;;;4986239;28;20645;-76
2021/11/30 01:30:13;;;;;;;3.30;2.38;;;4.40;1.00;;;;;;4985152;28;20700;-77
2021/11/30 01:32:55;;;;;;;1.83;1.55;;;4.40;1.00;;;;;;4996083;28;20638;-76
2021/11/30 01:36:07;;;;;;;1.98;1.65;;;4.50;1.00;;;;;;4995970;28;20188;-76
2021/11/30 01:38:50;;;;;;;4.57;2.50;;;4.40;1.00;;;;;;4987804;28;20201;-75
2021/11/30 01:41:45;;;;;;;1.88;1.70;;;4.40;1.00;;;;;;4995442;28;20232;-75
2021/11/30 01:50:34;;;;;;;3.00;2.20;;;4.60;1.00;;;;;;4991022;28;20196;-76
2021/11/30 01:53:49;;;;;;;2.03;1.90;;;4.60;1.00;;;;;;4995125;28;20181;-76
2021/11/30 01:56:20;;;;;;;8.82;1.75;;;4.50;1.00;;;;;;4976076;28;20162;-76
2021/11/30 01:59:13;;;;;;;3.20;2.10;;;4.60;1.00;;;;;;4992184;28;20584;-75
2021/11/30 02:01:44;;;;;;;2.83;1.98;;;4.50;1.00;;;;;;4995271;28;20177;-76
2021/11/30 02:04:10;;;;;;;2.97;1.60;;;4.50;1.00;;;;;;4995696;28;20227;-76
2021/11/30 02:10:06;;;;;;;2.05;1.45;;;4.50;1.00;;;;;;4986075;28;20571;-75
2021/11/30 02:12:50;;;;;;;2.45;1.90;;;4.50;1.00;;;;;;4995426;28;20193;-76
2021/11/30 02:15:16;;;;;;;2.63;1.70;;;4.60;1.00;;;;;;4995132;28;20617;-76
2021/11/30 02:17:51;;;;;;;1.63;1.53;;;4.60;1.00;;;;;;4994582;28;20499;-76
2021/11/30 02:20:17;;;;;;;3.37;1.43;;;4.60;1.00;;;;;;4995050;28;20442;-76
2021/11/30 02:22:58;;;;;;;1.38;1.25;;;4.60;1.00;;;;;;4995149;28;20511;-75
2021/11/30 02:26:13;;;;;;;2.15;1.67;;;4.50;1.00;;;;;;4993853;28;20265;-76
2021/11/30 02:28:57;;;;;;;2.10;1.83;;;4.50;1.00;;;;;;4994839;28;20178;-75
2021/11/30 02:31:46;;;;;;;1.85;1.33;;;4.50;1.00;;;;;;4988552;28;20659;-75
2021/11/30 02:34:26;;;;;;;1.60;1.50;;;4.50;1.00;;;;;;4994166;28;20193;-75
2021/11/30 02:40:15;;;;;;;3.70;1.30;;;4.50;1.00;;;;;;4994633;28;20411;-75
2021/11/30 02:42:41;;;;;;;2.28;1.70;;;4.50;1.00;;;;;;4994790;28;20181;-75
2021/11/30 02:45:31;;;;;;;3.03;1.50;;;4.50;1.00;;;;;;4994641;28;20182;-75
2021/11/30 02:48:14;;;;;;;2.13;1.27;;;4.50;1.00;;;;;;4994295;28;20537;-74
2021/11/30 02:50:44;;;;;;;1.10;1.00;;;4.50;1.00;;;;;;4994207;28;20685;-75
2021/11/30 02:53:21;;;;;;;1.48;1.15;;;4.50;1.00;;;;;;4992830;28;20520;-74
2021/11/30 02:55:56;;;;;;;1.23;1.10;;;4.50;1.00;;;;;;4994971;28;20184;-76
2021/11/30 02:58:21;;;;;;;2.90;1.17;;;4.40;1.00;;;;;;4994297;28;20212;-75
2021/11/30 03:01:09;;;;;;;1.00;0.97;;;4.50;1.00;;;;;;4993661;28;20209;-76
2021/11/30 03:03:55;;;;;;;1.30;1.20;;;4.40;1.00;;;;;;4994718;28;20178;-76
2021/11/30 03:06:49;;;;;;;1.90;0.90;;;4.40;1.00;;;;;;4994423;28;20413;-75
2021/11/30 03:09:26;;;;;;;0.90;0.90;;;4.30;1.00;;;;;;4994785;28;20269;-74
2021/11/30 03:11:56;;;;;;;2.00;1.27;;;4.30;1.00;;;;;;4993806;28;20773;-74
2021/11/30 03:14:28;;;;;;;1.58;1.05;;;4.30;1.00;;;;;;4994463;28;20412;-74
2021/11/30 03:16:55;;;;;;;2.58;1.13;;;4.30;1.00;;;;;;4994108;28;20185;-74
2021/11/30 03:19:21;;;;;;;1.92;1.30;;;4.40;1.00;;;;;;4994233;28;20182;-74
2021/11/30 03:21:50;;;;;;;1.13;1.13;;;4.30;1.00;;;;;;4983423;28;20174;-74
2021/11/30 03:24:43;;;;;;;1.17;1.10;;;4.30;1.00;;;;;;4992690;28;20165;-74
2021/11/30 03:27:09;;;;;;;1.35;1.10;;;4.30;1.00;;;;;;4994231;28;20189;-75
2021/11/30 03:29:35;;;;;;;2.70;1.27;;;4.20;1.00;;;;;;4994104;28;20194;-76
2021/11/30 03:35:06;;;;;;;1.58;1.33;;;4.30;1.00;;;;;;4994155;28;20188;-76
2021/11/30 03:38:19;;;;;;;1.13;1.13;;;4.20;1.00;;;;;;4993946;28;20216;-76
2021/11/30 03:40:45;;;;;;;1.53;1.20;;;4.20;1.00;;;;;;4992466;28;20586;-74
2021/11/30 03:43:14;;;;;;;1.47;1.37;;;4.20;1.00;;;;;;4995380;28;20471;-74
2021/11/30 03:45:50;;;;;;;1.60;1.50;;;4.20;1.00;;;;;;4974726;28;20874;-74
2021/11/30 03:48:20;;;;;;;1.02;1.02;;;4.20;1.00;;;;;;4989084;28;20214;-74
2021/11/30 03:50:50;;;;;;;0.95;0.93;;;4.20;1.00;;;;;;4993985;28;20177;-74
2021/11/30 03:53:26;;;;;;;1.10;1.10;;;4.20;1.00;;;;;;4993678;28;20186;-74
2021/11/30 03:55:52;;;;;;;0.93;0.93;;;4.20;1.00;;;;;;4994964;28;20185;-74
2021/11/30 03:58:18;;;;;;;1.90;1.50;;;;;;;;;;4993766;28;20210;-74
2021/11/30 04:00:44;;;;;;;1.10;1.10;;;4.20;1.00;;;;;;4993977;28;20253;-74
2021/11/30 04:03:10;;;;;;;1.83;1.38;;;4.20;1.00;;;;;;4981067;28;20281;-74
2021/11/30 04:05:37;;;;;;;1.00;0.97;;;4.20;1.00;;;;;;4994275;28;20657;-74
2021/11/30 04:08:03;;;;;;;1.20;1.10;;;4.20;1.00;;;;;;4988471;28;20939;-74
2021/11/30 04:10:32;;;;;;;2.88;1.73;;;4.20;1.00;;;;;;4986606;28;20190;-75
2021/11/30 04:13:32;;;;;;;5.63;1.60;;;4.20;1.00;;;;;;4997012;28;20209;-75
2021/11/30 04:15:58;;;;;;;2.67;0.65;;;4.20;1.00;;;;;;4997562;28;20186;-75
2021/11/30 04:18:26;;;;;;;2.53;1.70;;;4.20;1.00;;;;;;4997040;28;20540;-76
2021/11/30 04:21:02;;;;;;;0.70;0.70;;;4.20;1.00;;;;;;4997309;28;20447;-75
2021/11/30 04:23:38;;;;;;;1.75;1.10;;;4.20;1.00;;;;;;4997166;28;20165;-76
2021/11/30 04:26:08;;;;;;;1.48;1.38;;;4.20;1.00;;;;;;4984572;28;20255;-74
2021/11/30 04:28:33;;;;;;;5.50;1.25;;;4.20;1.00;;;;;;4996994;28;20648;-74
2021/11/30 04:31:14;;;;;;;2.30;1.47;;;4.20;1.00;;;;;;4997039;28;20186;-74
2021/11/30 04:33:44;;;;;;;1.30;1.20;;;4.20;1.00;;;;;;4997001;28;20448;-74
2021/11/30 04:36:10;;;;;;;2.83;1.52;;;4.20;1.00;;;;;;4997269;28;20710;-74
2021/11/30 04:38:38;;;;;;;1.10;1.00;;;4.20;1.00;;;;;;4996172;28;20676;-74
2021/11/30 04:41:08;;;;;;;2.28;1.70;;;4.30;1.00;;;;;;4997074;28;20221;-74
2021/11/30 04:43:35;;;;;;;1.45;1.35;;;4.30;1.00;;;;;;4996766;28;20192;-74
2021/11/30 04:46:11;;;;;;;1.00;1.00;;;4.30;1.00;;;;;;4996541;28;20182;-74
2021/11/30 04:48:40;;;;;;;1.60;1.40;;;4.30;1.00;;;;;;4997834;28;20185;-74
2021/11/30 04:51:12;;;;;;;2.65;1.10;;;8.50;1.00;;;;;;4990971;28;20179;-74
2021/11/30 04:53:41;;;;;;;1.30;1.30;;;4.20;1.00;;;;;;4995847;28;20178;-73
2021/11/30 04:56:25;;;;;;;3.60;1.90;;;4.20;1.00;;;;;;4997021;28;20538;-76
2021/11/30 04:59:20;;;;;;;1.55;1.45;;;4.10;1.00;;;;;;4996618;28;20717;-77
2021/11/30 05:02:37;;;;;;;7.38;1.65;;;4.10;1.00;;;;;;4996671;28;20182;-76
2021/11/30 05:05:25;;;;;;;10.18;1.90;;;4.10;1.00;;;;;;4996348;28;20185;-76
2021/11/30 05:07:51;;;;;;;1.70;1.58;;;4.10;1.00;;;;;;4996265;28;20190;-76
2021/11/30 05:10:43;;;;;;;5.43;1.20;;;4.10;1.00;;;;;;4996631;28;20265;-75
2021/11/30 05:13:09;;;;;;;2.08;1.80;;;4.00;1.00;;;;;;4977197;28;20238;-76
2021/11/30 05:15:38;;;;;;;7.27;1.60;;;4.00;1.00;;;;;;4993464;28;20201;-76
2021/11/30 05:18:08;;;;;;;5.10;2.15;;;4.00;1.00;;;;;;4995896;28;20471;-76
2021/11/30 05:20:38;;;;;;;2.38;2.17;;;4.00;1.00;;;;;;4995634;28;20178;-76
2021/11/30 05:23:09;;;;;;;2.30;2.10;;;4.00;1.00;;;;;;4995014;28;20229;-76
2021/11/30 05:25:57;;;;;;;4.07;2.90;;;4.00;1.00;;;;;;4996536;28;21811;-75
2021/11/30 05:28:49;;;;;;;5.13;2.60;;;4.00;1.00;;;;;;4995539;28;20526;-76
2021/11/30 05:32:01;;;;;;;2.65;2.25;;;3.90;1.00;;;;;;4995779;28;20186;-76
2021/11/30 05:37:56;;;;;;;3.40;3.03;;;3.90;1.00;;;;;;4993917;28;20220;-76
2021/11/30 05:40:32;;;;;;;3.85;2.95;;;;;;;;;;4995898;28;20208;-76
2021/11/30 05:46:20;;;;;;;3.35;2.10;;;3.80;1.00;;;;;;4995629;28;20189;-76
2021/11/30 05:48:56;;;;;;;6.00;2.45;;;3.80;1.00;;;;;;4995604;28;20216;-75
2021/11/30 05:51:38;;;;;;;3.67;2.70;;;3.80;1.00;;;;;;4983107;28;20184;-76
2021/11/30 05:57:26;;;;;;;3.50;2.20;;;3.80;1.00;;;;;;4995737;28;20304;-75
2021/11/30 06:00:09;;;;;;;4.03;2.73;;;3.70;1.00;;;;;;4995220;28;20575;-74
2021/11/30 06:02:54;;;;;;;3.30;2.35;;;3.70;1.00;;;;;;4993817;28;20459;-74
2021/11/30 06:05:20;;;;;;;3.55;2.58;;;3.70;1.00;;;;;;4995246;28;20228;-75
2021/11/30 06:07:56;;;;;;;3.00;1.90;;;3.70;1.00;;;;;;4994868;28;20193;-74
2021/11/30 06:10:38;;;;;;;1.38;1.27;;;3.60;1.00;;;;;;4995437;28;20200;-75
2021/11/30 06:13:04;;;;;;;5.70;2.70;;;3.60;1.00;;;;;;4990167;28;20186;-74
2021/11/30 06:15:31;;;;;;;1.20;1.10;;;3.60;1.00;;;;;;4995145;28;20158;-74
2021/11/30 06:17:57;;;;;;;2.08;1.95;;;3.50;1.00;;;;;;4991097;28;20457;-74
2021/11/30 06:20:23;;;;;;;4.30;3.07;;;3.50;1.00;;;;;;4995063;28;20261;-74
2021/11/30 06:22:49;;;;;;;5.63;2.70;;;3.50;1.00;;;;;;4994665;28;20637;-74
2021/11/30 06:25:20;;;;;;;4.27;2.83;;;3.50;1.00;;;;;;4981458;28;20316;-73
2021/11/30 06:27:45;;;;;;;2.47;2.22;;;3.50;1.00;;;;;;4989524;28;20261;-77
2021/11/30 06:30:14;;;;;;;1.53;1.43;;;3.40;1.00;;;;;;4994765;28;20259;-75
2021/11/30 06:32:44;;;;;;;5.82;2.15;;;3.40;1.00;;;;;;4991318;28;20968;-76
2021/11/30 06:35:14;;;;;;;5.00;2.95;;;3.30;1.00;;;;;;4988249;28;20234;-75
2021/11/30 06:37:51;;;;;;;2.22;1.58;;;3.30;1.00;;;;;;4993114;28;20547;-76
2021/11/30 06:40:32;;;;;;;3.33;2.58;;;3.40;1.00;;;;;;4994689;28;20177;-75
2021/11/30 06:43:25;;;;;;;2.85;2.63;;;3.30;1.00;;;;;;4995372;28;20162;-75
2021/11/30 06:45:51;;;;;;;4.72;2.85;;;3.30;1.00;;;;;;4994528;28;20285;-75
2021/11/30 06:48:37;;;;;;;2.60;2.20;;;3.30;1.00;;;;;;4994059;28;20177;-75
2021/11/30 06:51:38;;;;;;;2.97;2.67;;;3.30;1.00;;;;;;4994668;28;20178;-77
2021/11/30 06:54:08;;;;;;;3.40;2.63;;;3.30;1.00;;;;;;4988056;28;20285;-76
2021/11/30 06:56:33;;;;;;;2.92;2.42;;;3.30;1.00;;;;;;4994730;28;20185;-73
2021/11/30 06:58:59;;;;;;;2.53;1.23;;;3.30;1.00;;;;;;4993500;28;20279;-73
2021/11/30 07:01:28;;;;;;;7.10;2.57;;;;;;;;;;4993905;28;20487;-74
2021/11/30 07:03:58;;;;;;;2.63;1.85;;;3.30;1.00;;;;;;4994325;28;20613;-73
2021/11/30 07:09:16;;;;;;;2.35;2.15;;;3.40;1.00;;;;;;4994098;28;20189;-74
2021/11/30 07:15:09;;;;;;;1.95;1.55;;;3.50;1.00;;;;;;4987765;28;20197;-75
2021/11/30 07:17:39;;;;;;;3.28;1.35;;;3.50;1.00;;;;;;4993853;28;20693;-75
2021/11/30 07:20:08;;;;;;;3.67;1.65;;;3.40;1.00;;;;;;4994589;28;20181;-75
2021/11/30 07:22:44;;;;;;;1.48;1.30;;;3.50;1.00;;;;;;4991860;28;20259;-75
2021/11/30 07:25:10;;;;;;;3.15;2.15;;;3.50;1.00;;;;;;4988403;28;20200;-75
2021/11/30 07:27:35;;;;;;;1.33;1.23;;;3.50;1.00;;;;;;4994302;28;20189;-75
2021/11/30 07:33:26;;;;;;;1.63;1.38;;;3.50;1.00;;;;;;4993168;28;20320;-76
2021/11/30 07:36:15;;;;;;;0.88;0.88;;;3.50;1.00;;;;;;4981729;28;20170;-77
2021/11/30 07:39:13;;;;;;;1.17;1.13;;;3.40;1.00;;;;;;4981187;28;20750;-78
2021/11/30 07:41:44;;;;;;;13.07;2.55;;;3.50;1.00;;;;;;4988944;28;20186;-75
2021/11/30 07:44:31;;;;;;;1.40;1.30;;;3.50;1.00;;;;;;4994614;28;20594;-79
2021/11/30 07:46:57;;;;;;;2.08;1.38;;;3.40;1.00;;;;;;4995449;28;20205;-79
2021/11/30 07:53:13;;;;;;;1.38;1.30;;;3.50;1.00;;;;;;4990472;28;20192;-81
2021/11/30 07:56:25;;;;;;;1.08;1.02;;;3.50;1.00;;;;;;4980210;28;20162;-77
2021/11/30 08:02:14;;;;;;;4.30;1.08;;;3.50;1.00;;;;;;4997249;28;20189;-74
2021/11/30 08:31:34;;;;;;;0.60;0.60;;;3.50;1.00;;;;;;4994703;28;20177;-77
2021/11/30 08:34:43;;;;;;;0.47;0.47;;;3.60;1.00;;;;;;4996625;28;20166;-78
2021/11/30 08:37:14;;;;;;;0.77;0.77;;;3.60;1.00;;;;;;4987459;28;20177;-76
2021/11/30 08:43:03;;;;;;;0.40;0.40;;;3.70;1.00;;;;;;4996949;28;20181;-75
2021/11/30 08:45:38;;;;;;;0.60;0.60;;;3.70;1.00;;;;;;4996877;28;20178;-75
2021/11/30 08:48:08;;;;;;;0.60;0.60;;;3.80;1.00;;;;;;4996717;28;20197;-75
2021/11/30 08:50:44;;;;;;;1.73;0.70;;;3.80;1.00;;;;;;4996657;28;20189;-75
2021/11/30 08:53:10;;;;;;;0.60;0.50;;;;;;;;;;4994638;28;20216;-75
2021/11/30 08:55:44;;;;;;;0.70;0.65;;;;;;;;;;4996559;28;20194;-75
2021/11/30 09:08:16;;;;;;;0.43;0.40;;;4.00;1.00;;;;;;4989111;28;21341;-78
2021/11/30 09:17:07;;;;;;;0.60;0.60;;;4.00;1.00;;;;;;4996189;28;20224;-77
2021/11/30 09:19:50;;;;;;;0.40;0.40;;;4.20;1.00;;;;;;4995592;28;20178;-77
2021/11/30 09:22:17;;;;;;;0.40;0.40;;;4.10;1.00;;;;;;4991597;28;20182;-78
2021/11/30 09:24:43;;;;;;;0.40;0.40;;;;;;;;;;4996242;28;20197;-78
2021/11/30 09:27:09;;;;;;;0.43;0.43;;;;;;;;;;4994108;28;20269;-78
2021/11/30 09:29:35;;;;;;;0.50;0.50;;;;;;;;;;4994888;28;20182;-77
2021/11/30 09:32:02;;;;;;;0.40;0.40;;;;;;;;;;4994910;28;20212;-78
2021/11/30 09:34:28;;;;;;;1.20;0.50;;;;;;;;;;4994463;28;20174;-78
2021/11/30 09:36:56;;;;;;;0.40;0.30;;;4.30;1.00;;;;;;4993493;28;20228;-78
2021/11/30 09:39:22;;;;;;;4.13;0.73;;;;;;;;;;4994530;28;20959;-78
2021/11/30 09:41:49;;;;;;;0.30;0.30;;;4.40;1.00;;;;;;4994653;28;20192;-78
2021/11/30 09:44:16;;;;;;;0.50;0.40;;;4.40;1.00;;;;;;4994929;28;20214;-78
2021/11/30 09:46:43;;;;;;;0.30;0.30;;;4.40;1.00;;;;;;4994148;28;20982;-79
2021/11/30 09:49:09;;;;;;;0.63;0.60;;;4.40;1.00;;;;;;4994705;28;20424;-78
2021/11/30 09:51:36;;;;;;;0.40;0.40;;;4.40;1.00;;;;;;4994487;28;20197;-79
2021/11/30 09:54:02;;;;;;;0.70;0.60;;;4.20;1.00;;;;;;4994013;28;20201;-81
2021/11/30 09:56:28;;;;;;;0.30;0.30;;;;;;;;;;4999940;28;20185;-79
2021/11/30 09:58:54;;;;;;;0.70;0.45;;;;;;;;;;4969103;28;20190;-75
2021/11/30 10:01:20;;;;;;;0.50;0.50;;;4.20;1.00;;;;;;4992262;28;20661;-75
2021/11/30 10:03:47;;;;;;;0.50;0.50;;;;;;;;;;4990993;28;20220;-75
2021/11/30 10:06:13;;;;;;;0.30;0.30;;;4.20;1.00;;;;;;4989648;28;20417;-77
2021/11/30 10:08:46;;;;;;;0.50;0.50;;;4.30;1.00;;;;;;4991273;28;20198;-76
2021/11/30 10:11:34;;;;;;;0.98;0.47;;;4.20;1.00;;;;;;4983260;28;20189;-77
2021/11/30 10:14:16;;;;;;;0.40;0.40;;;4.20;1.00;;;;;;4987553;28;20245;-75
2021/11/30 10:17:08;;;;;;;0.70;0.60;;;4.20;1.00;;;;;;4992155;28;20529;-76
2021/11/30 10:19:33;;;;;;;0.47;0.47;;;4.30;1.00;;;;;;4993314;28;20217;-75
2021/11/30 10:21:59;;;;;;;0.90;0.63;;;4.30;1.00;;;;;;4993612;28;20299;-75
2021/11/30 10:24:25;;;;;;;0.43;0.43;;;4.40;1.00;;;;;;4992570;28;20192;-76
2021/11/30 10:26:50;;;;;;;0.50;0.50;;;;;;;;;;4993471;28;20667;-75
2021/11/30 10:29:17;;;;;;;0.50;0.50;;;4.40;1.00;;;;;;4994160;28;20245;-78
2021/11/30 10:31:51;;;;;;;0.30;0.30;;;4.40;1.00;;;;;;4993125;28;20947;-78
2021/11/30 10:34:23;;;;;;;0.38;0.38;;;4.40;1.00;;;;;;4987797;28;20301;-80
2021/11/30 10:36:53;;;;;;;0.40;0.40;;;4.50;1.00;;;;;;4981588;28;20260;-79
2021/11/30 10:39:24;;;;;;;0.55;0.55;;;4.50;1.00;;;;;;4993077;28;20295;-78
2021/11/30 10:41:51;;;;;;;0.40;0.40;;;4.50;1.00;;;;;;4994613;28;20196;-79
2021/11/30 10:44:30;;;;;;;0.50;0.50;;;4.50;1.00;;;;;;4999592;28;20204;-75
2021/11/30 10:47:11;;;;;;;0.40;0.40;;;4.60;1.00;;;;;;4993446;28;20700;-76
2021/11/30 10:49:50;;;;;;;0.45;0.45;;;4.60;1.00;;;;;;4992997;28;20196;-76
2021/11/30 10:52:27;;;;;;;1.43;0.80;;;4.60;1.00;;;;;;4992976;28;20652;-75
2021/11/30 10:55:04;;;;;;;1.77;0.70;;;4.50;1.00;;;;;;4993797;28;20463;-76
2021/11/30 10:57:32;;;;;;;0.52;0.52;;;4.60;1.00;;;;;;4993159;28;20181;-76
2021/11/30 11:00:15;;;;;;;0.30;0.30;;;4.60;1.00;;;;;;4992303;28;20285;-75
2021/11/30 11:03:00;;;;;;;0.55;0.55;;;4.60;1.00;;;;;;4992360;28;20185;-76
2021/11/30 11:05:34;;;;;;;0.80;0.52;;;4.60;1.00;;;;;;4989907;28;20185;-76
2021/11/30 11:08:26;;;;;;;0.47;0.47;;;4.70;1.00;;;;;;4989198;28;20193;-76
2021/11/30 11:10:59;;;;;;;0.47;0.47;;;4.70;1.00;;;;;;4992096;28;20189;-75
2021/11/30 11:13:35;;;;;;;0.70;0.70;;;4.70;1.00;;;;;;4993079;28;20971;-78
2021/11/30 11:16:04;;;;;;;0.70;0.70;;;4.80;1.00;;;;;;4993415;28;20546;-76
2021/11/30 11:18:35;;;;;;;1.25;0.80;;;4.80;1.00;;;;;;4992580;28;20231;-76
2021/11/30 11:21:16;;;;;;;0.80;0.80;;;4.80;1.00;;;;;;4993583;28;20583;-76
2021/11/30 11:23:45;;;;;;;0.53;0.53;;;4.90;1.00;;;;;;5000279;28;20424;-76
2021/11/30 11:26:24;;;;;;;0.73;0.73;;;4.90;1.00;;;;;;4996976;28;20437;-76
2021/11/30 11:28:52;;;;;;;0.90;0.90;;;4.90;1.00;;;;;;4988214;28;20452;-76
2021/11/30 11:31:19;;;;;;;0.67;0.60;;;4.90;1.00;;;;;;4996745;28;20439;-76
2021/11/30 11:33:45;;;;;;;3.13;0.50;;;;;;;;;;4995737;28;20784;-76
2021/11/30 11:36:11;;;;;;;1.13;1.03;;;4.90;1.00;;;;;;4996722;28;20187;-77
2021/11/30 11:38:38;;;;;;;1.13;0.87;;;5.00;1.00;;;;;;4996666;28;20783;-76
2021/11/30 11:41:04;;;;;;;0.70;0.70;;;;;;;;;;4996980;28;20182;-76
2021/11/30 11:43:30;;;;;;;0.80;0.80;;;5.00;1.00;;;;;;4996765;28;20463;-75
2021/11/30 11:46:02;;;;;;;0.67;0.60;;;5.00;1.00;;;;;;4993819;28;20187;-78
2021/11/30 11:48:29;;;;;;;0.90;0.90;;;5.00;1.00;;;;;;4994000;28;20808;-78
2021/11/30 11:50:57;;;;;;;0.87;0.87;;;5.00;1.00;;;;;;4996797;28;20416;-79
2021/11/30 11:53:29;;;;;;;0.80;0.80;;;5.10;1.00;;;;;;4996326;28;20428;-78
2021/11/30 11:56:13;;;;;;;0.80;0.80;;;5.10;1.00;;;;;;4995877;28;20479;-77
2021/11/30 11:58:40;;;;;;;0.63;0.63;;;5.10;1.00;;;;;;4995157;28;20511;-78
2021/11/30 12:01:12;;;;;;;0.70;0.70;;;5.20;1.00;;;;;;4995600;28;20464;-79
2021/11/30 12:03:49;;;;;;;0.70;0.70;;;5.20;1.00;;;;;;4995389;28;20428;-78
2021/11/30 12:06:20;;;;;;;0.50;0.50;;;5.20;1.00;;;;;;4996530;28;20818;-79
2021/11/30 12:09:08;;;;;;;3.27;0.70;;;5.20;1.00;;;;;;4991283;28;20220;-78
2021/11/30 12:11:38;;;;;;;1.00;0.60;;;5.20;1.00;;;;;;4996012;28;20773;-79
2021/11/30 12:14:12;;;;;;;0.67;0.67;;;5.30;1.00;;;;;;4996876;28;20420;-76
2021/11/30 12:17:16;;;;;;;1.33;0.70;;;5.30;1.00;;;;;;4996232;28;20421;-76
2021/11/30 12:19:49;;;;;;;1.35;0.60;;;5.30;1.00;;;;;;4996284;28;20501;-75
2021/11/30 12:22:52;;;;;;;0.50;0.50;;;5.30;1.00;;;;;;4996148;28;20232;-76
2021/11/30 12:25:27;;;;;;;0.60;0.60;;;5.30;1.00;;;;;;4996169;28;20520;-75
2021/11/30 12:27:58;;;;;;;0.60;0.60;;;5.40;1.00;;;;;;4995767;28;20193;-75
2021/11/30 12:30:50;;;;;;;0.40;0.40;;;5.40;1.00;;;;;;4996072;28;20427;-76
2021/11/30 12:33:22;;;;;;;0.40;0.40;;;5.40;1.00;;;;;;4995784;28;20409;-76
2021/11/30 12:35:58;;;;;;;0.80;0.80;;;5.50;1.00;;;;;;4995692;28;20495;-76
2021/11/30 12:38:35;;;;;;;0.40;0.40;;;5.50;1.00;;;;;;4995704;28;20515;-76
2021/11/30 12:41:24;;;;;;;0.47;0.47;;;5.50;1.00;;;;;;4996187;28;20408;-76
2021/11/30 12:43:51;;;;;;;0.57;0.50;;;5.50;1.00;;;;;;4995790;28;20425;-76
2021/11/30 12:46:35;;;;;;;0.50;0.50;;;5.50;1.00;;;;;;4996095;28;20899;-79
2021/11/30 12:49:03;;;;;;;0.40;0.40;;;5.40;1.00;;;;;;4995557;28;20735;-78
2021/11/30 12:51:37;;;;;;;0.50;0.50;;;5.40;1.00;;;;;;4995124;28;20420;-78
2021/11/30 12:54:20;;;;;;;0.40;0.40;;;5.40;1.00;;;;;;4990396;28;20758;-78
2021/11/30 12:56:52;;;;;;;0.50;0.50;;;5.40;1.00;;;;;;5004254;28;20417;-78
2021/11/30 12:59:36;;;;;;;0.37;0.37;;;5.40;1.00;;;;;;4995240;28;20460;-78
2021/11/30 13:02:21;;;;;;;0.30;0.30;;;5.40;1.00;;;;;;4994427;28;20560;-78
2021/11/30 13:04:50;;;;;;;0.50;0.50;;;5.40;1.00;;;;;;4993726;28;20431;-79
2021/11/30 13:07:17;;;;;;;0.30;0.30;;;5.40;1.00;;;;;;4995178;28;20444;-78
2021/11/30 13:09:49;;;;;;;0.40;0.40;;;5.40;1.00;;;;;;4993816;28;20182;-78
2021/11/30 13:12:21;;;;;;;0.50;0.50;;;5.40;1.00;;;;;;4994399;28;20429;-78
2021/11/30 13:14:48;;;;;;;3.13;0.50;;;5.40;1.00;;;;;;4978468;28;20444;-79
2021/11/30 13:17:15;;;;;;;0.50;0.50;;;5.50;1.00;;;;;;4991854;28;20428;-79
2021/11/30 13:19:43;;;;;;;0.50;0.50;;;5.50;1.00;;;;;;4994995;28;20444;-78
2021/11/30 13:22:11;;;;;;;0.50;0.50;;;5.40;1.00;;;;;;4993591;28;20490;-79
2021/11/30 13:24:44;;;;;;;0.60;0.60;;;5.50;1.00;;;;;;4994684;28;20428;-79
2021/11/30 13:27:17;;;;;;;0.50;0.50;;;5.50;1.00;;;;;;4994548;28;20440;-79
2021/11/30 13:30:05;;;;;;;0.40;0.40;;;5.60;1.00;;;;;;4995090;28;20410;-77
2021/11/30 13:32:59;;;;;;;0.30;0.30;;;5.60;1.00;;;;;;4993453;28;20479;-77
2021/11/30 13:35:33;;;;;;;0.40;0.40;;;5.60;1.00;;;;;;4992311;28;20954;-75
2021/11/30 13:38:08;;;;;;;0.50;0.40;;;5.60;1.00;;;;;;4994696;28;20981;-76
2021/11/30 13:40:37;;;;;;;0.40;0.40;;;5.60;1.00;;;;;;4994157;28;20846;-76
2021/11/30 13:43:08;;;;;;;0.60;0.40;;;5.60;1.00;;;;;;4994392;28;20870;-76
2021/11/30 13:45:41;;;;;;;0.50;0.50;;;5.60;1.00;;;;;;4993765;28;20424;-78
2021/11/30 13:48:07;;;;;;;0.50;0.50;;;5.60;1.00;;;;;;4990617;28;20213;-76
2021/11/30 13:50:38;;;;;;;0.43;0.43;;;5.70;1.00;;;;;;4994645;28;20417;-76
2021/11/30 13:53:07;;;;;;;0.40;0.40;;;5.70;1.00;;;;;;4993511;28;20429;-76
2021/11/30 13:55:33;;;;;;;0.40;0.40;;;5.80;1.00;;;;;;4996038;28;20429;-76
2021/11/30 13:58:01;;;;;;;0.40;0.40;;;5.70;1.00;;;;;;4993212;28;20432;-76
2021/11/30 14:00:27;;;;;;;0.30;0.30;;;5.70;1.00;;;;;;5001979;28;20447;-79
2021/11/30 14:02:56;;;;;;;0.80;0.40;;;5.70;1.00;;;;;;4994548;28;20447;-79
2021/11/30 14:05:23;;;;;;;0.60;0.60;;;5.80;1.00;;;;;;4992623;28;20715;-79
2021/11/30 14:07:58;;;;;;;0.93;0.50;;;5.90;1.00;;;;;;4993901;28;20816;-78
2021/11/30 14:10:27;;;;;;;0.40;0.40;;;5.90;1.00;;;;;;4992975;28;20871;-79
2021/11/30 14:12:57;;;;;;;0.33;0.33;;;5.90;1.00;;;;;;4992913;28;20844;-79
2021/11/30 14:15:22;;;;;;;0.60;0.60;;;5.80;1.00;;;;;;4990562;28;20946;-78
2021/11/30 14:18:01;;;;;;;0.83;0.83;;;5.80;1.00;;;;;;4993443;28;20531;-78
2021/11/30 14:20:27;;;;;;;0.50;0.50;;;;;;;;;;4993724;28;20213;-78
2021/11/30 14:22:53;;;;;;;0.40;0.40;;;;;;;;;;4993567;28;20448;-78
2021/11/30 14:25:22;;;;;;;0.40;0.40;;;5.80;1.00;;;;;;4993807;28;20428;-78
2021/11/30 14:27:57;;;;;;;0.57;0.57;;;5.90;1.00;;;;;;4993806;28;20546;-78
2021/11/30 14:30:38;;;;;;;1.00;0.40;;;5.90;1.00;;;;;;4993392;28;20943;-77
2021/11/30 14:33:11;;;;;;;0.50;0.50;;;5.90;1.00;;;;;;4982411;28;20437;-78
2021/11/30 14:35:45;;;;;;;0.40;0.40;;;5.90;1.00;;;;;;4987783;28;20516;-77
2021/11/30 14:38:12;;;;;;;0.50;0.50;;;6.00;1.00;;;;;;4992681;28;20443;-77
2021/11/30 14:40:39;;;;;;;0.40;0.40;;;6.00;1.00;;;;;;4984465;28;20499;-77
2021/11/30 14:43:09;;;;;;;0.40;0.40;;;6.00;1.00;;;;;;4993642;28;20425;-78
2021/11/30 14:45:44;;;;;;;0.43;0.43;;;6.00;1.00;;;;;;4993706;28;20462;-77
2021/11/30 14:48:24;;;;;;;0.70;0.60;;;6.10;1.00;;;;;;4990987;28;20563;-76
2021/11/30 14:50:58;;;;;;;0.50;0.50;;;6.00;1.00;;;;;;4993638;28;20479;-76
2021/11/30 14:53:30;;;;;;;0.40;0.40;;;6.00;1.00;;;;;;4993100;28;20912;-76
2021/11/30 14:55:57;;;;;;;0.50;0.50;;;6.00;1.00;;;;;;5004468;28;20428;-76
2021/11/30 14:58:36;;;;;;;0.50;0.43;;;6.00;1.00;;;;;;4993071;28;20436;-76
2021/11/30 15:04:31;;;;;;;1.17;0.57;;;6.00;1.00;;;;;;4986690;28;20504;-78
2021/11/30 15:10:57;;;;;;;0.40;0.40;;;6.00;1.00;;;;;;4981266;28;20464;-79
2021/11/30 15:13:43;;;;;;;1.67;0.55;;;6.00;1.00;;;;;;4993951;28;20916;-78
2021/11/30 15:16:29;;;;;;;0.40;0.40;;;6.00;1.00;;;;;;5002460;28;20227;-80
2021/11/30 15:23:07;;;;;;;0.40;0.40;;;6.00;1.00;;;;;;4993893;28;20411;-79
2021/11/30 15:25:57;;;;;;;0.37;0.37;;;6.10;1.00;;;;;;4992217;28;20456;-78
2021/11/30 15:28:27;;;;;;;0.40;0.40;;;6.00;1.00;;;;;;4994157;28;20943;-76
2021/11/30 15:31:02;;;;;;;0.50;0.50;;;6.00;1.00;;;;;;4994077;28;20181;-77
2021/11/30 15:33:28;;;;;;;0.50;0.50;;;6.00;1.00;;;;;;4994324;28;20400;-76
2021/11/30 15:35:53;;;;;;;0.50;0.50;;;7.10;1.00;;;;;;4986623;28;20900;-74
2021/11/30 15:38:20;;;;;;;0.40;0.40;;;6.00;1.00;;;;;;4986803;28;20188;-77